Terminal Aerodrome Forecast
Issued by NWS Missoula, MT

Home | Current Version | Previous Version | Text Only | Print | Product List | Glossary On
Versions: 1 2 3 4 5 6 7 8 9 10 11 12 13
000
FTUS45 KMSO 060520
TAFBTM
TAF
KBTM 060520Z 0606/0706 VRB03KT P6SM VCSH SCT150
     FM060700 20012KT P6SM BKN060
     FM061500 33010KT P6SM VCSH BKN030
     FM061800 07012KT P6SM BKN050=

USA.gov is the U.S. government's official web portal to all federal, state and local government web resources and services.